Time;durP1;ratioP1;P1;durP2;ratioP2;P2;SDS_P1;SDS_P2;PMS_P1;PMS_P2;Temp;Humidity;BMP_temperature;BMP_pressure;BME280_temperature;BME280_humidity;BME280_pressure;Samples;Min_cycle;Max_cycle;Signal;HPM_P1;HPM_P2
2024/02/09 00:00:23;;;;;;;8.30;6.25;;;;;;;-146.25;100.00;52619.63;2071502;28;34195;-61
2024/02/09 00:01:25;;;;;;;7.97;6.35;;;;;;;-146.25;100.00;52617.59;2071410;28;33547;-61
2024/02/09 00:02:27;;;;;;;6.78;5.60;;;;;;;-146.25;100.00;52587.19;2071571;28;20073;-60
2024/02/09 00:03:28;;;;;;;8.02;5.65;;;;;;;-146.25;100.00;52650.03;2071313;28;36181;-61
2024/02/09 00:04:30;;;;;;;8.05;5.55;;;;;;;-146.25;100.00;52623.69;2070358;28;35047;-61
2024/02/09 00:05:32;;;;;;;9.18;5.47;;;;;;;-146.25;100.00;52627.75;2071473;28;20054;-61
2024/02/09 00:06:36;;;;;;;6.65;4.93;;;;;;;-146.25;100.00;52621.66;2071703;28;20148;-60
2024/02/09 00:07:45;;;;;;;7.65;5.75;;;;;;;-146.25;100.00;52648.00;2071226;28;36113;-61
2024/02/09 00:08:48;;;;;;;5.57;3.88;;;;;;;-146.25;100.00;52619.63;2072072;28;20140;-61
2024/02/09 00:09:51;;;;;;;8.75;5.97;;;;;;;-146.25;100.00;52593.25;2071017;28;34642;-60
2024/02/09 00:10:53;;;;;;;8.80;5.78;;;;;;;-146.25;100.00;52613.53;2071258;28;33620;-60
2024/02/09 00:11:57;;;;;;;5.90;4.68;;;;;;;-146.25;100.00;52635.84;2071896;28;20794;-61
2024/02/09 00:12:59;;;;;;;5.80;4.68;;;;;;;-146.25;100.00;52631.78;2071534;28;25458;-60
2024/02/09 00:14:01;;;;;;;6.50;4.70;;;;;;;-146.25;100.00;52656.13;2071319;28;27413;-60
2024/02/09 00:15:06;;;;;;;6.82;5.88;;;;;;;-146.25;100.00;52603.41;2071619;28;23558;-60
2024/02/09 00:16:08;;;;;;;6.65;4.80;;;;;;;-146.25;100.00;52605.44;2071516;28;20415;-60
2024/02/09 00:17:09;;;;;;;6.60;4.97;;;;;;;-146.25;100.00;52603.41;2071805;28;20043;-60
2024/02/09 00:18:18;;;;;;;7.32;5.30;;;;;;;-146.25;100.00;52633.81;2071484;28;31068;-60
2024/02/09 00:19:21;;;;;;;6.53;5.25;;;;;;;-146.25;100.00;52627.75;2070890;28;33709;-60
2024/02/09 00:20:25;;;;;;;5.70;4.35;;;;;;;-146.25;100.00;52631.78;2071372;28;20170;-61
2024/02/09 00:21:27;;;;;;;6.97;5.18;;;;;;;-146.25;100.00;52643.97;2071175;28;37897;-60
2024/02/09 00:22:29;;;;;;;6.78;5.35;;;;;;;-146.25;100.00;52643.97;2071617;28;26030;-59
2024/02/09 00:23:32;;;;;;;7.03;4.55;;;;;;;-146.25;100.00;52611.50;2071674;28;20039;-60
2024/02/09 00:24:35;;;;;;;6.22;4.60;;;;;;;-146.25;100.00;52593.25;2071033;28;34827;-60
2024/02/09 00:25:41;;;;;;;6.18;4.40;;;;;;;-146.25;100.00;52613.53;2071742;28;20054;-61
2024/02/09 00:26:43;;;;;;;6.35;4.93;;;;;;;-146.25;100.00;52623.69;2071180;28;38379;-60
2024/02/09 00:27:44;;;;;;;6.95;4.78;;;;;;;-146.25;100.00;52589.22;2071149;28;34781;-60
2024/02/09 00:28:46;;;;;;;6.65;4.47;;;;;;;-146.25;100.00;52617.59;2071101;28;32538;-60
2024/02/09 00:29:50;;;;;;;6.50;4.60;;;;;;;-146.25;100.00;52672.34;2071135;28;36066;-60
2024/02/09 00:30:54;;;;;;;6.40;4.60;;;;;;;-146.25;100.00;52627.75;2070815;28;35977;-60
2024/02/09 00:31:57;;;;;;;6.60;4.60;;;;;;;-146.25;100.00;52625.72;2070856;28;32812;-60
2024/02/09 00:32:59;;;;;;;4.78;3.70;;;;;;;-146.25;100.00;52635.84;2079381;28;35076;-60
2024/02/09 00:34:01;;;;;;;5.32;3.58;;;;;;;-146.25;100.00;52639.91;2079637;28;32697;-61
2024/02/09 00:35:04;;;;;;;6.18;4.68;;;;;;;-146.25;100.00;52611.50;2072346;28;33954;-60
2024/02/09 00:36:06;;;;;;;5.28;3.97;;;;;;;-146.25;100.00;52631.78;2072464;28;32286;-61
2024/02/09 00:37:11;;;;;;;4.43;3.33;;;;;;;-146.25;100.00;52599.34;2073170;28;20035;-61
2024/02/09 00:38:15;;;;;;;5.13;3.55;;;;;;;-146.25;100.00;52631.78;2072324;28;38146;-61
2024/02/09 00:39:17;;;;;;;5.22;3.95;;;;;;;-146.25;100.00;52607.47;2072274;28;31838;-61
2024/02/09 00:40:19;;;;;;;5.60;4.13;;;;;;;-146.25;100.00;52633.81;2072947;28;36093;-61
2024/02/09 00:41:22;;;;;;;3.97;3.30;;;;;;;-146.25;100.00;52650.03;2072919;28;20046;-60
2024/02/09 00:42:24;;;;;;;3.70;3.15;;;;;;;-146.25;100.00;52603.41;2072699;28;30658;-60
2024/02/09 00:43:27;;;;;;;3.83;2.95;;;;;;;-146.25;100.00;52641.94;2072190;28;33392;-61
2024/02/09 00:44:31;;;;;;;4.30;3.35;;;;;;;-146.25;100.00;52635.84;2072607;28;33119;-60
2024/02/09 00:45:34;;;;;;;4.60;3.83;;;;;;;-146.25;100.00;52654.09;2073220;28;20112;-61
2024/02/09 00:46:49;;;;;;;4.63;3.80;;;;;;;-146.25;100.00;52593.25;2072392;28;35032;-60
2024/02/09 00:47:52;;;;;;;4.93;3.72;;;;;;;-146.25;100.00;52645.97;2073223;28;20035;-60
2024/02/09 00:48:53;;;;;;;3.83;3.05;;;;;;;-146.25;100.00;52627.75;2072674;28;33714;-60
2024/02/09 00:49:57;;;;;;;4.60;3.33;;;;;;;-146.25;100.00;52643.97;2071976;28;37138;-61
2024/02/09 00:50:59;;;;;;;4.03;3.15;;;;;;;-146.25;100.00;52641.94;2072519;28;34701;-61
2024/02/09 00:52:02;;;;;;;3.00;2.58;;;;;;;-146.25;100.00;52643.97;2072342;28;33687;-60
2024/02/09 00:53:04;;;;;;;4.05;3.03;;;;;;;-146.25;100.00;52652.06;2080195;28;34746;-60
2024/02/09 00:54:09;;;;;;;5.05;3.28;;;;;;;-146.25;100.00;52611.50;2079459;28;32740;-61
2024/02/09 00:55:12;;;;;;;3.47;2.92;;;;;;;-146.25;100.00;52631.78;2072924;28;20038;-60
2024/02/09 00:56:14;;;;;;;4.65;3.00;;;;;;;-146.25;100.00;52660.19;2072417;28;35801;-60
2024/02/09 00:57:16;;;;;;;3.58;3.10;;;;;;;-146.25;100.00;52645.97;2072146;28;33990;-60
2024/02/09 00:58:18;;;;;;;4.07;3.20;;;;;;;-146.25;100.00;52605.44;2072681;28;32958;-60
2024/02/09 00:59:21;;;;;;;5.20;3.13;;;;;;;-146.25;100.00;52609.50;2072354;28;37216;-60
2024/02/09 01:00:24;;;;;;;2.70;2.50;;;;;;;-146.25;100.00;52629.75;2073367;28;20038;-60
2024/02/09 01:01:26;;;;;;;2.90;2.58;;;;;;;-146.25;100.00;52623.69;2072405;28;34092;-60
2024/02/09 01:02:29;;;;;;;2.90;2.47;;;;;;;-146.25;100.00;52627.75;2072468;28;34303;-60
2024/02/09 01:03:31;;;;;;;3.97;2.40;;;;;;;-146.25;100.00;52641.94;2073370;28;20503;-61
2024/02/09 01:04:37;;;;;;;3.30;3.00;;;;;;;-146.25;100.00;52611.50;2072042;28;36023;-60
2024/02/09 01:05:39;;;;;;;4.75;2.80;;;;;;;-146.25;100.00;52591.25;2072050;28;33739;-60
2024/02/09 01:06:41;;;;;;;3.75;2.90;;;;;;;-146.25;100.00;52615.56;2072668;28;25119;-60
2024/02/09 01:07:43;;;;;;;2.42;1.83;;;;;;;-146.25;100.00;52605.44;2079905;28;36578;-60
2024/02/09 01:08:45;;;;;;;2.78;2.28;;;;;;;-146.25;100.00;52615.56;2080360;28;20053;-60
2024/02/09 01:09:47;;;;;;;2.75;2.38;;;;;;;-146.25;100.00;52615.56;2072590;28;33199;-59
2024/02/09 01:10:49;;;;;;;2.72;2.47;;;;;;;-146.25;100.00;52639.91;2072703;28;30626;-60
2024/02/09 01:11:52;;;;;;;3.15;2.60;;;;;;;-146.25;100.00;52605.44;2072912;28;20094;-61
2024/02/09 02:45:32;;;;;;;2.13;1.90;;;;;;;-146.25;100.00;52635.84;2072120;28;20904;-62
2024/02/09 02:46:34;;;;;;;2.17;1.98;;;;;;;-146.25;100.00;52629.75;2071367;28;37145;-62
2024/02/09 02:47:37;;;;;;;1.75;1.48;;;;;;;-146.25;100.00;52619.63;2062838;28;34925;-62
2024/02/09 03:04:46;;;;;;;;;;;;;;;-146.25;100.00;52633.81;2072055;28;34104;-63
2024/02/09 03:05:48;;;;;;;1.48;1.25;;;;;;;-146.25;100.00;52660.19;2071283;28;38169;-62
2024/02/09 03:06:52;;;;;;;1.67;1.48;;;;;;;-146.25;100.00;52607.47;2072328;28;20097;-62
2024/02/09 03:08:08;;;;;;;1.80;1.42;;;;;;;-146.25;100.00;52607.47;2063503;28;20047;-62
2024/02/09 03:09:30;;;;;;;2.00;1.77;;;;;;;-146.25;100.00;52625.72;2069159;28;20042;-62
2024/02/09 03:10:32;;;;;;;2.42;2.22;;;;;;;-146.25;100.00;52670.31;2071415;28;37057;-62
2024/02/09 03:11:33;;;;;;;1.75;1.65;;;;;;;-146.25;100.00;52599.34;2071940;28;20165;-61
2024/02/09 03:12:38;;;;;;;2.33;1.63;;;;;;;-146.25;100.00;52623.69;2071736;28;34187;-62
2024/02/09 03:13:44;;;;;;;2.00;1.67;;;;;;;-146.25;100.00;52631.78;2071778;28;37425;-62
2024/02/09 03:14:46;;;;;;;1.70;1.38;;;;;;;-146.25;100.00;52611.50;2071605;28;32924;-61
2024/02/09 03:15:52;;;;;;;1.90;1.75;;;;;;;-146.25;100.00;52672.34;2071316;28;35553;-62
2024/02/09 03:16:57;;;;;;;2.40;2.10;;;;;;;-146.25;100.00;52619.63;2072445;28;20038;-62
2024/02/09 03:18:00;;;;;;;2.08;1.48;;;;;;;-146.25;100.00;52645.97;2071745;28;34875;-62
2024/02/09 03:19:02;;;;;;;2.38;2.10;;;;;;;-146.25;100.00;52643.97;2071571;28;34559;-62
2024/02/09 03:20:06;;;;;;;2.38;2.08;;;;;;;-146.25;100.00;52629.75;2072014;28;32178;-62
2024/02/09 03:21:09;;;;;;;2.38;2.03;;;;;;;-146.25;100.00;52648.00;2070791;28;34030;-63
2024/02/09 03:22:11;;;;;;;2.20;2.00;;;;;;;-146.25;100.00;52633.81;2071861;28;33434;-62
2024/02/09 03:23:17;;;;;;;3.45;1.90;;;;;;;-146.25;100.00;52599.34;2071309;28;35984;-62
2024/02/09 03:24:18;;;;;;;2.50;1.85;;;;;;;-146.25;100.00;52633.81;2071867;28;20119;-62
2024/02/09 03:25:21;;;;;;;2.95;1.50;;;;;;;-146.25;100.00;52621.66;2070777;28;37217;-62
2024/02/09 03:26:23;;;;;;;2.47;2.10;;;;;;;-146.25;100.00;52648.00;2071492;28;32187;-62
2024/02/09 03:27:24;;;;;;;3.17;2.20;;;;;;;-146.25;100.00;52631.78;2071464;28;34883;-62
2024/02/09 03:28:26;;;;;;;2.25;1.98;;;;;;;-146.25;100.00;52613.53;2071530;28;35517;-62
2024/02/09 03:29:30;;;;;;;2.90;2.28;;;;;;;-146.25;100.00;52623.69;2071519;28;20042;-62
2024/02/09 03:30:32;;;;;;;2.95;1.77;;;;;;;-146.25;100.00;52621.66;2071409;28;37073;-62
2024/02/09 03:31:34;;;;;;;2.38;1.80;;;;;;;-146.25;100.00;52639.91;2071511;28;33081;-62
2024/02/09 03:32:43;;;;;;;2.35;1.98;;;;;;;-146.25;100.00;52680.47;2071593;28;34637;-62
2024/02/09 03:33:45;;;;;;;2.42;2.22;;;;;;;-146.25;100.00;52611.50;2071517;28;36995;-62
2024/02/09 03:34:49;;;;;;;2.80;2.33;;;;;;;-146.25;100.00;52652.06;2072101;28;20042;-61
2024/02/09 03:35:51;;;;;;;2.47;2.20;;;;;;;-146.25;100.00;52627.75;2071019;28;38987;-62
2024/02/09 03:36:54;;;;;;;2.42;2.22;;;;;;;-146.25;100.00;52660.19;2072368;28;20061;-61
2024/02/09 03:37:57;;;;;;;3.10;2.50;;;;;;;-146.25;100.00;52619.63;2071003;28;37479;-62
2024/02/09 03:39:01;;;;;;;3.92;2.38;;;;;;;-146.25;100.00;52639.91;2071830;28;38526;-62
2024/02/09 03:40:03;;;;;;;2.33;2.13;;;;;;;-146.25;100.00;52609.50;2070709;28;34834;-62
2024/02/09 03:41:05;;;;;;;2.47;2.25;;;;;;;-146.25;100.00;52662.22;2078850;28;37182;-61
2024/02/09 03:42:07;;;;;;;2.75;2.20;;;;;;;-146.25;100.00;52619.63;2079048;28;20034;-62
2024/02/09 03:43:12;;;;;;;3.28;2.53;;;;;;;-146.25;100.00;52631.78;2071635;28;35412;-62
2024/02/09 03:44:14;;;;;;;3.00;2.28;;;;;;;-146.25;100.00;52607.47;2071575;28;32936;-62
2024/02/09 03:45:18;;;;;;;2.70;2.50;;;;;;;-146.25;100.00;52615.56;2071827;28;20844;-62
2024/02/09 03:46:20;;;;;;;2.03;1.35;;;;;;;-146.25;100.00;52615.56;2071460;28;33773;-62
2024/02/09 03:47:24;;;;;;;2.33;2.13;;;;;;;-146.25;100.00;52627.75;2071490;28;33847;-62
2024/02/09 03:48:29;;;;;;;2.63;2.17;;;;;;;-146.25;100.00;52635.84;2071071;28;36614;-62
2024/02/09 03:49:30;;;;;;;2.60;1.80;;;;;;;-146.25;100.00;52603.41;2072564;28;20185;-62
2024/02/09 03:50:34;;;;;;;1.90;1.70;;;;;;;-146.25;100.00;52643.97;2070870;28;34964;-62
2024/02/09 03:51:35;;;;;;;2.70;1.58;;;;;;;-146.25;100.00;52619.63;2071417;28;33493;-62
2024/02/09 03:52:44;;;;;;;2.40;2.00;;;;;;;-146.25;100.00;52658.16;2078681;28;32647;-62
2024/02/09 03:53:46;;;;;;;2.00;1.60;;;;;;;-146.25;100.00;52643.97;2078058;28;38313;-62
2024/02/09 03:54:53;;;;;;;2.65;2.33;;;;;;;-146.25;100.00;52635.84;2071525;28;20042;-62
2024/02/09 03:55:57;;;;;;;2.50;2.28;;;;;;;-146.25;100.00;52603.41;2071680;28;32314;-62
2024/02/09 03:56:58;;;;;;;3.58;2.55;;;;;;;-146.25;100.00;52668.28;2071600;28;20074;-62
2024/02/09 03:58:00;;;;;;;1.92;1.70;;;;;;;-146.25;100.00;52615.56;2071200;28;35792;-62
2024/02/09 03:59:06;;;;;;;4.05;2.90;;;;;;;-146.25;100.00;52662.22;2070892;28;33778;-62
2024/02/09 04:00:12;;;;;;;2.83;2.25;;;;;;;-146.25;100.00;52643.97;2062343;28;33766;-62
2024/02/09 04:01:14;;;;;;;2.80;2.40;;;;;;;-146.25;100.00;52615.56;2063761;28;37522;-62
2024/02/09 04:02:18;;;;;;;2.70;2.28;;;;;;;-146.25;100.00;52629.75;2071202;28;33775;-62
2024/02/09 04:03:19;;;;;;;2.83;2.45;;;;;;;-146.25;100.00;52639.91;2071355;28;37684;-62
2024/02/09 04:04:21;;;;;;;3.47;2.80;;;;;;;-146.25;100.00;52605.44;2071844;28;34714;-62
2024/02/09 04:05:23;;;;;;;3.67;2.30;;;;;;;-146.25;100.00;52652.06;2078558;28;31391;-62
2024/02/09 04:06:29;;;;;;;3.00;2.40;;;;;;;-146.25;100.00;52635.84;2078619;28;36724;-63
2024/02/09 04:07:33;;;;;;;3.42;2.80;;;;;;;-146.25;100.00;52648.00;2078881;28;20057;-62
2024/02/09 04:08:35;;;;;;;3.22;2.92;;;;;;;-146.25;100.00;52623.69;2077976;28;33005;-63
2024/02/09 04:09:40;;;;;;;3.60;2.45;;;;;;;-146.25;100.00;52635.84;2070952;28;38299;-63
2024/02/09 04:10:49;;;;;;;3.47;2.72;;;;;;;-146.25;100.00;52654.09;2072272;28;20084;-62
2024/02/09 04:11:51;;;;;;;3.05;2.50;;;;;;;-146.25;100.00;52645.97;2071352;28;33049;-62
2024/02/09 04:12:53;;;;;;;3.55;2.80;;;;;;;-146.25;100.00;52627.75;2071308;28;31647;-63
2024/02/09 04:13:55;;;;;;;4.00;3.08;;;;;;;-146.25;100.00;52639.91;2071274;28;35964;-63
2024/02/09 04:14:57;;;;;;;3.25;2.60;;;;;;;-146.25;100.00;52613.53;2071028;28;34803;-62
2024/02/09 04:16:00;;;;;;;3.38;2.78;;;;;;;-146.25;100.00;52615.56;2071986;28;20132;-62
2024/02/09 04:17:06;;;;;;;3.15;2.53;;;;;;;-146.25;100.00;52619.63;2071010;28;34838;-62
2024/02/09 04:18:09;;;;;;;3.40;2.95;;;;;;;-146.25;100.00;52639.91;2071115;28;34448;-62
2024/02/09 04:19:11;;;;;;;3.53;2.42;;;;;;;-146.25;100.00;52631.78;2071189;28;33770;-62
2024/02/09 04:20:13;;;;;;;3.40;2.92;;;;;;;-146.25;100.00;52625.72;2071728;28;20105;-62
2024/02/09 04:21:16;;;;;;;4.15;3.28;;;;;;;-146.25;100.00;52637.88;2070886;28;36543;-62
2024/02/09 04:22:19;;;;;;;4.78;3.00;;;;;;;-146.25;100.00;52627.75;2071059;28;38412;-62
2024/02/09 04:23:21;;;;;;;4.65;3.00;;;;;;;-146.25;100.00;52625.72;2071070;28;36228;-62
2024/02/09 04:24:23;;;;;;;4.43;3.50;;;;;;;-146.25;100.00;52611.50;2070747;28;37816;-63
2024/02/09 04:25:25;;;;;;;3.60;2.97;;;;;;;-146.25;100.00;52635.84;2071266;28;33793;-63
2024/02/09 04:26:27;;;;;;;5.32;3.65;;;;;;;-146.25;100.00;52648.00;2071428;28;33601;-62
2024/02/09 04:27:29;;;;;;;5.78;2.80;;;;;;;-146.25;100.00;52623.69;2071126;28;36716;-63
2024/02/09 04:28:31;;;;;;;4.28;3.33;;;;;;;-146.25;100.00;52601.38;2071449;28;31705;-62
2024/02/09 04:29:32;;;;;;;4.97;3.67;;;;;;;-146.25;100.00;52645.97;2070892;28;37713;-62
2024/02/09 04:30:37;;;;;;;4.15;3.50;;;;;;;-146.25;100.00;52597.31;2071408;28;34878;-63
2024/02/09 04:31:41;;;;;;;4.68;3.70;;;;;;;-146.25;100.00;52619.63;2070776;28;33116;-63
2024/02/09 04:32:43;;;;;;;4.88;3.58;;;;;;;-146.25;100.00;52595.28;2070628;28;36000;-62
2024/02/09 04:33:45;;;;;;;4.30;3.55;;;;;;;-146.25;100.00;52631.78;2071865;28;20061;-63
2024/02/09 04:34:47;;;;;;;4.82;3.28;;;;;;;-146.25;100.00;52637.88;2071589;28;20042;-63
2024/02/09 04:35:49;;;;;;;5.35;3.60;;;;;;;-146.25;100.00;52631.78;2070937;28;37119;-62
2024/02/09 04:36:55;;;;;;;5.20;3.90;;;;;;;-146.25;100.00;52633.81;2071303;28;34538;-63
2024/02/09 04:37:59;;;;;;;4.95;3.78;;;;;;;-146.25;100.00;52615.56;2071040;28;34829;-63
2024/02/09 04:39:01;;;;;;;5.22;3.42;;;;;;;-146.25;100.00;52650.03;2071192;28;29602;-63
2024/02/09 04:40:03;;;;;;;3.70;2.88;;;;;;;-146.25;100.00;52617.59;2071446;28;20112;-62
2024/02/09 04:41:05;;;;;;;4.18;3.47;;;;;;;-146.25;100.00;52643.97;2071256;28;37339;-63
2024/02/09 04:42:07;;;;;;;5.65;4.40;;;;;;;-146.25;100.00;52668.28;2070980;28;33701;-62
2024/02/09 04:43:09;;;;;;;5.53;4.03;;;;;;;-146.25;100.00;52639.91;2070027;28;33830;-63
2024/02/09 04:44:13;;;;;;;4.85;3.25;;;;;;;-146.25;100.00;52631.78;2071170;28;20109;-63
2024/02/09 04:45:15;;;;;;;4.32;2.83;;;;;;;-146.25;100.00;52641.94;2079219;28;20050;-63
2024/02/09 04:46:24;;;;;;;6.63;3.92;;;;;;;-146.25;100.00;52635.84;2078303;28;32014;-63
2024/02/09 04:47:28;;;;;;;6.82;4.25;;;;;;;-146.25;100.00;52615.56;2071117;28;35360;-62
2024/02/09 04:48:29;;;;;;;5.55;4.03;;;;;;;-146.25;100.00;52615.56;2071875;28;20069;-63
2024/02/09 04:49:31;;;;;;;5.60;3.90;;;;;;;-146.25;100.00;52645.97;2079515;28;22972;-63
2024/02/09 04:50:33;;;;;;;6.22;4.28;;;;;;;-146.25;100.00;52639.91;2078311;28;33835;-62
2024/02/09 04:51:46;;;;;;;5.13;3.97;;;;;;;-146.25;100.00;52654.09;2070984;28;34988;-63
2024/02/09 04:52:51;;;;;;;5.20;3.85;;;;;;;-146.25;100.00;52635.84;2078259;28;35523;-63
2024/02/09 04:53:53;;;;;;;4.85;3.47;;;;;;;-146.25;100.00;52585.16;2078423;28;21159;-62
2024/02/09 04:54:55;;;;;;;6.10;4.20;;;;;;;-146.25;100.00;52607.47;2071034;28;36996;-62
2024/02/09 04:55:56;;;;;;;5.70;4.15;;;;;;;-146.25;100.00;52617.59;2071115;28;34532;-63
2024/02/09 04:56:58;;;;;;;5.18;4.25;;;;;;;-146.25;100.00;52611.50;2070636;28;33307;-63
2024/02/09 04:58:03;;;;;;;7.20;4.57;;;;;;;-146.25;100.00;52603.41;2072098;28;20983;-63
2024/02/09 04:59:08;;;;;;;7.07;4.90;;;;;;;-146.25;100.00;52619.63;2070951;28;35366;-62
2024/02/09 05:00:11;;;;;;;6.15;4.10;;;;;;;-146.25;100.00;52656.13;2071188;28;34965;-62
2024/02/09 05:01:30;;;;;;;6.63;4.72;;;;;;;-146.25;100.00;52611.50;2070780;28;34056;-62
2024/02/09 05:02:38;;;;;;;7.63;4.60;;;;;;;-146.25;100.00;52631.78;2071513;28;20050;-63
2024/02/09 05:03:40;;;;;;;6.97;4.35;;;;;;;-146.25;100.00;52615.56;2062341;28;34632;-62
2024/02/09 05:04:47;;;;;;;6.68;4.18;;;;;;;-146.25;100.00;52666.25;2062328;28;37013;-62
2024/02/09 05:05:49;;;;;;;4.43;3.17;;;;;;;-146.25;100.00;52627.75;2070796;28;34127;-63
2024/02/09 05:06:50;;;;;;;7.18;4.40;;;;;;;-146.25;100.00;52629.75;2071854;28;20031;-63
2024/02/09 05:07:53;;;;;;;6.25;3.97;;;;;;;-146.25;100.00;52611.50;2071479;28;20932;-63
2024/02/09 05:08:57;;;;;;;7.20;4.57;;;;;;;-146.25;100.00;52599.34;2071739;28;35229;-63
2024/02/09 05:09:59;;;;;;;7.60;5.20;;;;;;;-146.25;100.00;52670.31;2078130;28;34290;-62
2024/02/09 05:11:01;;;;;;;6.97;4.78;;;;;;;-146.25;100.00;52621.66;2078237;28;34674;-63
2024/02/09 05:12:03;;;;;;;7.18;4.50;;;;;;;-146.25;100.00;52627.75;2070962;28;34113;-62
2024/02/09 05:13:07;;;;;;;7.47;4.97;;;;;;;-146.25;100.00;52623.69;2071047;28;36627;-63
2024/02/09 05:14:09;;;;;;;7.63;5.00;;;;;;;-146.25;100.00;52625.72;2077964;28;35937;-63
2024/02/09 05:15:10;;;;;;;8.25;4.65;;;;;;;-146.25;100.00;52635.84;2078123;28;36215;-62
2024/02/09 05:16:12;;;;;;;7.03;4.20;;;;;;;-146.25;100.00;52603.41;2070786;28;34921;-62
2024/02/09 05:17:14;;;;;;;7.18;4.82;;;;;;;-146.25;100.00;52635.84;2071264;28;31032;-62
2024/02/09 05:18:16;;;;;;;7.25;4.20;;;;;;;-146.25;100.00;52621.66;2070992;28;33843;-63
2024/02/09 05:19:18;;;;;;;7.57;4.72;;;;;;;-146.25;100.00;52607.47;2072006;28;33039;-63
2024/02/09 05:20:22;;;;;;;6.03;4.18;;;;;;;-146.25;100.00;52654.09;2073025;28;20051;-63
2024/02/09 05:21:24;;;;;;;7.68;5.07;;;;;;;-146.25;100.00;52615.56;2072264;28;35625;-62
2024/02/09 05:22:28;;;;;;;7.63;4.85;;;;;;;-146.25;100.00;52631.78;2072305;28;33733;-62
2024/02/09 05:23:30;;;;;;;7.20;4.68;;;;;;;-146.25;100.00;52639.91;2072492;28;35427;-63
2024/02/09 05:24:33;;;;;;;6.78;3.53;;;;;;;-146.25;100.00;52629.75;2072340;28;35349;-63
2024/02/09 05:25:35;;;;;;;7.22;3.72;;;;;;;-146.25;100.00;52639.91;2080761;28;20060;-63
2024/02/09 05:26:36;;;;;;;6.90;4.95;;;;;;;-146.25;100.00;52583.13;2079401;28;36065;-62
2024/02/09 05:27:38;;;;;;;6.68;4.20;;;;;;;-146.25;100.00;52631.78;2072279;28;35688;-62
2024/02/09 05:28:42;;;;;;;7.82;4.88;;;;;;;-146.25;100.00;52585.16;2080449;28;20993;-62
2024/02/09 05:29:46;;;;;;;7.82;4.82;;;;;;;-146.25;100.00;52662.22;2070607;28;35279;-62
2024/02/09 05:30:48;;;;;;;6.78;4.45;;;;;;;-146.25;100.00;52615.56;2064821;28;20102;-62
2024/02/09 05:31:51;;;;;;;7.55;4.80;;;;;;;-146.25;100.00;52617.59;2072457;28;37364;-63
2024/02/09 05:32:54;;;;;;;6.43;4.03;;;;;;;-146.25;100.00;52641.94;2071923;28;36595;-62
2024/02/09 05:33:56;;;;;;;6.55;4.50;;;;;;;-146.25;100.00;52623.69;2073315;28;20240;-63
2024/02/09 05:35:00;;;;;;;7.45;4.38;;;;;;;-146.25;100.00;52619.63;2072778;28;20797;-62
2024/02/09 05:36:03;;;;;;;6.20;3.90;;;;;;;-146.25;100.00;52635.84;2071960;28;33248;-62
2024/02/09 05:37:09;;;;;;;9.45;4.95;;;;;;;-146.25;100.00;52652.06;2072795;28;20085;-62
2024/02/09 05:38:12;;;;;;;6.75;4.18;;;;;;;-146.25;100.00;52627.75;2072227;28;36492;-63
2024/02/09 05:39:14;;;;;;;6.68;3.95;;;;;;;-146.25;100.00;52629.75;2071923;28;32858;-63
2024/02/09 05:40:17;;;;;;;7.22;3.78;;;;;;;-146.25;100.00;52654.09;2072750;28;20049;-63
2024/02/09 05:41:20;;;;;;;7.13;4.35;;;;;;;-146.25;100.00;52654.09;2071906;28;35233;-62
2024/02/09 05:42:22;;;;;;;6.53;4.45;;;;;;;-146.25;100.00;52589.22;2072150;28;31088;-63
2024/02/09 05:43:24;;;;;;;7.25;4.18;;;;;;;-146.25;100.00;52660.19;2072586;28;20104;-63
2024/02/09 05:44:25;;;;;;;6.95;4.65;;;;;;;-146.25;100.00;52662.22;2072223;28;38402;-62
2024/02/09 05:45:28;;;;;;;9.30;4.28;;;;;;;-146.25;100.00;52597.31;2072006;28;35050;-62
2024/02/09 05:46:31;;;;;;;6.53;4.45;;;;;;;-146.25;100.00;52637.88;2072477;28;33244;-63
2024/02/09 05:47:33;;;;;;;5.90;4.22;;;;;;;-146.25;100.00;52615.56;2071994;28;36494;-63
2024/02/09 05:48:35;;;;;;;7.38;4.57;;;;;;;-146.25;100.00;52678.44;2073108;28;20051;-63
2024/02/09 05:49:37;;;;;;;8.68;4.30;;;;;;;-146.25;100.00;52595.28;2071925;28;34094;-61
2024/02/09 05:50:39;;;;;;;5.60;3.80;;;;;;;-146.25;100.00;52635.84;2072020;28;34048;-61
2024/02/09 05:51:42;;;;;;;6.90;4.50;;;;;;;-146.25;100.00;52619.63;2071780;28;34146;-61
2024/02/09 05:52:43;;;;;;;7.28;3.65;;;;;;;-146.25;100.00;52654.09;2071653;28;35778;-61
2024/02/09 05:53:49;;;;;;;6.70;4.55;;;;;;;-146.25;100.00;52633.81;2072944;28;20916;-61
2024/02/09 05:54:50;;;;;;;5.85;3.90;;;;;;;-146.25;100.00;52637.88;2072390;28;37318;-61
2024/02/09 05:55:53;;;;;;;6.93;4.45;;;;;;;-146.25;100.00;52635.84;2072004;28;34782;-61
2024/02/09 05:56:54;;;;;;;6.57;4.25;;;;;;;-146.25;100.00;52621.66;2064155;28;32330;-62
2024/02/09 05:57:59;;;;;;;6.00;4.03;;;;;;;-146.25;100.00;52607.47;2063467;28;36643;-62
2024/02/09 05:59:04;;;;;;;4.25;2.85;;;;;;;-146.25;100.00;52631.78;2072762;28;20085;-63
2024/02/09 06:00:08;;;;;;;9.60;4.90;;;;;;;-146.25;100.00;52617.59;2072141;28;34003;-62
2024/02/09 06:01:10;;;;;;;6.10;4.03;;;;;;;-146.25;100.00;52639.91;2063338;28;37808;-62
2024/02/09 06:02:12;;;;;;;4.68;3.35;;;;;;;-146.25;100.00;52656.13;2063334;28;33561;-62
2024/02/09 06:03:14;;;;;;;7.57;4.47;;;;;;;-146.25;100.00;52666.25;2071806;28;37256;-62
2024/02/09 06:04:15;;;;;;;6.35;4.32;;;;;;;-146.25;100.00;52607.47;2072810;28;20114;-62
2024/02/09 06:05:19;;;;;;;7.88;4.50;;;;;;;-146.25;100.00;52635.84;2070944;28;36908;-61
2024/02/09 06:06:22;;;;;;;8.48;4.53;;;;;;;-146.25;100.00;52627.75;2071883;28;34286;-62
2024/02/09 06:07:27;;;;;;;5.35;3.55;;;;;;;-146.25;100.00;52641.94;2071736;28;34236;-62
2024/02/09 06:08:29;;;;;;;6.30;3.70;;;;;;;-146.25;100.00;52635.84;2072528;28;20030;-61
2024/02/09 06:09:36;;;;;;;7.97;4.72;;;;;;;-146.25;100.00;52629.75;2072199;28;33137;-61
2024/02/09 06:10:38;;;;;;;6.35;4.03;;;;;;;-146.25;100.00;52615.56;2072069;28;33788;-61
2024/02/09 06:11:41;;;;;;;6.90;4.28;;;;;;;-146.25;100.00;52621.66;2071925;28;33967;-62
2024/02/09 06:12:44;;;;;;;6.38;4.15;;;;;;;-146.25;100.00;52635.84;2062795;28;38704;-62
2024/02/09 06:13:46;;;;;;;6.95;4.32;;;;;;;-146.25;100.00;52599.34;2064114;28;20870;-62
2024/02/09 06:14:49;;;;;;;7.65;4.47;;;;;;;-146.25;100.00;52633.81;2071507;28;39057;-62
2024/02/09 06:15:51;;;;;;;7.75;4.22;;;;;;;-146.25;100.00;52621.66;2072142;28;33846;-62
2024/02/09 06:16:55;;;;;;;7.03;4.30;;;;;;;-146.25;100.00;52615.56;2072003;28;32786;-62
2024/02/09 06:18:02;;;;;;;8.15;4.43;;;;;;;-146.25;100.00;52631.78;2072405;28;20184;-62
2024/02/09 06:19:04;;;;;;;9.02;4.50;;;;;;;-146.25;100.00;52656.13;2072757;28;20042;-62
2024/02/09 06:20:09;;;;;;;6.82;4.38;;;;;;;-146.25;100.00;52631.78;2072189;28;20116;-62
2024/02/09 06:21:14;;;;;;;7.60;4.70;;;;;;;-146.25;100.00;52631.78;2072605;28;20042;-62
2024/02/09 06:22:16;;;;;;;6.68;4.15;;;;;;;-146.25;100.00;52658.16;2071884;28;36745;-62
2024/02/09 06:23:18;;;;;;;7.70;4.72;;;;;;;-146.25;100.00;52605.44;2071998;28;34752;-62
2024/02/09 06:24:24;;;;;;;7.47;4.82;;;;;;;-146.25;100.00;52639.91;2072728;28;20820;-62
2024/02/09 06:25:27;;;;;;;7.38;4.45;;;;;;;-146.25;100.00;52611.50;2072138;28;38433;-62
2024/02/09 06:26:28;;;;;;;6.97;4.72;;;;;;;-146.25;100.00;52607.47;2072261;28;20832;-62
2024/02/09 06:27:33;;;;;;;7.82;5.13;;;;;;;-146.25;100.00;52629.75;2072561;28;20073;-62
2024/02/09 06:28:38;;;;;;;8.27;4.80;;;;;;;-146.25;100.00;52662.22;2072609;28;32074;-62
2024/02/09 06:29:39;;;;;;;7.50;4.43;;;;;;;-146.25;100.00;52621.66;2071705;28;33978;-62
2024/02/09 06:30:41;;;;;;;7.90;4.72;;;;;;;-146.25;100.00;52654.09;2071246;28;37030;-62
2024/02/09 06:31:43;;;;;;;8.55;4.85;;;;;;;-146.25;100.00;52601.38;2072393;28;20117;-62
2024/02/09 06:32:45;;;;;;;7.82;5.22;;;;;;;-146.25;100.00;52621.66;2071850;28;36280;-62
2024/02/09 06:33:50;;;;;;;9.18;5.00;;;;;;;-146.25;100.00;52615.56;2072145;28;30772;-62
2024/02/09 06:34:54;;;;;;;8.23;4.78;;;;;;;-146.25;100.00;52617.59;2071825;28;33367;-62
2024/02/09 06:35:56;;;;;;;8.07;4.60;;;;;;;-146.25;100.00;52617.59;2071655;28;34559;-62